createdAt,value
2017-08-13T00:00:33.290Z,15.13
2017-08-13T00:01:42.821Z,15.07
2017-08-13T00:02:52.604Z,15.14
2017-08-13T00:04:02.461Z,14.99
2017-08-13T00:05:11.675Z,14.96
2017-08-13T00:06:20.886Z,15.01
2017-08-13T00:07:30.092Z,14.99
2017-08-13T00:08:40.103Z,14.98
2017-08-13T00:09:49.633Z,14.98
2017-08-13T00:10:59.485Z,14.94
2017-08-13T00:12:08.694Z,14.86
2017-08-13T00:13:17.577Z,14.92
2017-08-13T00:14:27.261Z,14.94
2017-08-13T00:15:36.475Z,14.86
2017-08-13T00:16:45.679Z,14.77
2017-08-13T00:17:55.213Z,14.83
2017-08-13T00:19:05.065Z,14.89
2017-08-13T00:20:14.529Z,14.84
2017-08-13T00:21:23.415Z,14.8
2017-08-13T00:22:32.948Z,14.77
2017-08-13T00:23:41.829Z,14.68
2017-08-13T00:24:51.032Z,14.72
2017-08-13T00:26:00.245Z,14.7
2017-08-13T00:27:10.102Z,14.64
2017-08-13T00:28:18.982Z,14.62
2017-08-13T00:29:27.865Z,14.5
2017-08-13T00:30:37.073Z,14.58
2017-08-13T00:31:46.426Z,14.64
2017-08-13T00:32:55.955Z,14.65
2017-08-13T00:34:05.486Z,14.57
2017-08-13T00:35:15.349Z,14.64
2017-08-13T00:36:24.879Z,14.54
2017-08-13T00:37:34.408Z,14.6
2017-08-13T00:38:43.626Z,14.62
2017-08-13T00:39:52.838Z,14.57
2017-08-13T00:41:02.044Z,14.55
2017-08-13T00:42:11.902Z,14.58
2017-08-13T00:43:20.786Z,14.52
2017-08-13T00:44:30.314Z,14.54
2017-08-13T00:45:39.523Z,14.46
2017-08-13T00:46:48.735Z,14.57
2017-08-13T00:47:58.277Z,14.51
2017-08-13T00:49:07.780Z,14.46
2017-08-13T00:50:16.995Z,14.45
2017-08-13T00:51:26.198Z,14.43
2017-08-13T00:52:35.721Z,14.43
2017-08-13T00:53:45.247Z,14.33
2017-08-13T00:54:54.148Z,14.28
2017-08-13T00:56:03.365Z,14.28
2017-08-13T00:57:13.545Z,14.28
2017-08-13T00:58:22.751Z,14.35
2017-08-13T00:59:32.281Z,14.32
2017-08-13T01:00:41.635Z,14.25
2017-08-13T01:01:50.845Z,14.28
2017-08-13T01:03:00.051Z,14.18
2017-08-13T01:04:09.578Z,14.24
2017-08-13T01:05:19.110Z,14.15
2017-08-13T01:06:28.636Z,14.24
2017-08-13T01:07:37.845Z,14.21
2017-08-13T01:08:47.390Z,14.18
2017-08-13T01:09:56.592Z,14.14
2017-08-13T01:11:05.476Z,14.14
2017-08-13T01:12:14.983Z,14.12
2017-08-13T01:13:24.187Z,14.04
2017-08-13T01:14:33.391Z,13.95
2017-08-13T01:15:42.921Z,13.95
2017-08-13T01:16:52.771Z,14
2017-08-13T01:18:02.029Z,14.04
2017-08-13T01:19:11.557Z,14
2017-08-13T01:20:21.087Z,13.96
2017-08-13T01:21:30.292Z,14
2017-08-13T01:22:39.819Z,14
2017-08-13T01:23:49.028Z,14.04
2017-08-13T01:24:58.231Z,13.97
2017-08-13T01:26:08.086Z,14.04
2017-08-13T01:27:17.613Z,13.99
2017-08-13T01:28:26.820Z,14.04
2017-08-13T01:29:36.107Z,14.06
2017-08-13T01:30:45.636Z,13.99
2017-08-13T01:31:54.836Z,14.02
2017-08-13T01:33:04.692Z,13.92
2017-08-13T01:34:13.900Z,13.95
2017-08-13T01:35:23.255Z,13.88
2017-08-13T01:36:32.781Z,13.89
2017-08-13T01:37:42.321Z,13.89
2017-08-13T01:38:51.527Z,13.92
2017-08-13T01:40:01.378Z,13.84
2017-08-13T01:41:11.052Z,13.89
2017-08-13T01:42:19.931Z,13.77
2017-08-13T01:43:28.810Z,13.79
2017-08-13T01:44:38.353Z,13.81
2017-08-13T01:45:47.880Z,13.77
2017-08-13T01:46:57.560Z,13.79
2017-08-13T01:48:07.417Z,13.84
2017-08-13T01:49:16.947Z,13.75
2017-08-13T01:50:26.155Z,13.81
2017-08-13T01:51:35.031Z,13.73
2017-08-13T01:52:45.205Z,13.73
2017-08-13T01:53:55.057Z,13.78
2017-08-13T01:55:04.918Z,13.64
2017-08-13T01:56:13.812Z,13.64
2017-08-13T01:57:23.017Z,13.66
2017-08-13T01:58:31.905Z,13.63
2017-08-13T01:59:41.429Z,13.63
2017-08-13T02:00:50.635Z,13.52
2017-08-13T02:02:00.170Z,13.59
2017-08-13T02:03:10.025Z,13.54
2017-08-13T02:04:19.384Z,13.59
2017-08-13T02:05:28.264Z,13.59
2017-08-13T02:06:37.484Z,13.51
2017-08-13T02:07:46.364Z,13.51
2017-08-13T02:08:55.573Z,13.51
2017-08-13T02:10:04.505Z,13.45
2017-08-13T02:11:13.713Z,13.46
2017-08-13T02:12:22.595Z,13.54
2017-08-13T02:13:31.485Z,13.48
2017-08-13T02:14:41.338Z,13.54
2017-08-13T02:15:50.862Z,13.54
2017-08-13T02:17:00.395Z,13.57
2017-08-13T02:18:09.929Z,13.55
2017-08-13T02:19:19.135Z,13.51
2017-08-13T02:20:28.990Z,13.57
2017-08-13T02:21:38.350Z,13.51
2017-08-13T02:22:48.197Z,13.51
2017-08-13T02:23:57.080Z,13.48
2017-08-13T02:25:06.937Z,13.42
2017-08-13T02:26:15.824Z,13.51
2017-08-13T02:27:25.605Z,13.54
2017-08-13T02:28:35.128Z,13.57
2017-08-13T02:29:44.334Z,13.57
2017-08-13T02:30:53.538Z,13.46
2017-08-13T02:32:03.064Z,13.49
2017-08-13T02:33:12.600Z,13.46
2017-08-13T02:34:22.129Z,13.45
2017-08-13T02:35:31.658Z,13.44
2017-08-13T02:36:41.184Z,13.46
2017-08-13T02:37:50.715Z,13.48
2017-08-13T02:39:00.345Z,13.54
2017-08-13T02:40:09.923Z,13.52
2017-08-13T02:41:19.127Z,13.49
2017-08-13T02:42:28.657Z,13.44
2017-08-13T02:43:38.190Z,13.32
2017-08-13T02:44:47.974Z,13.51
2017-08-13T02:45:57.501Z,13.48
2017-08-13T02:47:07.370Z,13.38
2017-08-13T02:48:16.919Z,13.39
2017-08-13T02:49:25.797Z,13.32
2017-08-13T02:50:35.484Z,13.29
2017-08-13T02:51:45.017Z,13.32
2017-08-13T02:52:54.236Z,13.33
2017-08-13T02:54:03.442Z,13.33
2017-08-13T02:55:12.646Z,13.32
2017-08-13T02:56:22.474Z,13.32
2017-08-13T02:57:31.680Z,13.42
2017-08-13T02:58:40.565Z,13.41
2017-08-13T02:59:49.770Z,13.36
2017-08-13T03:00:58.973Z,13.29
2017-08-13T03:02:08.234Z,13.39
2017-08-13T03:03:17.437Z,13.42
2017-08-13T03:04:26.331Z,13.32
2017-08-13T03:05:36.185Z,13.3
2017-08-13T03:06:45.725Z,13.33
2017-08-13T03:07:55.556Z,13.29
2017-08-13T03:09:04.759Z,13.3
2017-08-13T03:10:13.962Z,13.33
2017-08-13T03:11:22.851Z,13.3
2017-08-13T03:12:32.075Z,13.33
2017-08-13T03:13:41.335Z,13.33
2017-08-13T03:14:50.862Z,13.33
2017-08-13T03:15:59.749Z,13.39
2017-08-13T03:17:08.627Z,13.33
2017-08-13T03:18:17.833Z,13.28
2017-08-13T03:19:27.240Z,13.36
2017-08-13T03:20:36.447Z,13.32
2017-08-13T03:21:45.974Z,13.36
2017-08-13T03:22:55.502Z,13.36
2017-08-13T03:24:05.037Z,13.38
2017-08-13T03:25:14.870Z,13.25
2017-08-13T03:26:24.071Z,13.23
2017-08-13T03:27:33.925Z,13.33
2017-08-13T03:28:43.453Z,13.32
2017-08-13T03:29:52.341Z,13.32
2017-08-13T03:31:02.026Z,13.29
2017-08-13T03:32:11.889Z,13.33
2017-08-13T03:33:21.097Z,13.36
2017-08-13T03:34:30.306Z,13.23
2017-08-13T03:35:39.197Z,13.39
2017-08-13T03:36:48.780Z,13.32
2017-08-13T03:37:57.995Z,13.33
2017-08-13T03:39:07.845Z,13.38
2017-08-13T03:40:17.052Z,13.32
2017-08-13T03:41:25.938Z,13.29
2017-08-13T03:42:35.140Z,13.41
2017-08-13T03:43:44.018Z,13.48
2017-08-13T03:44:53.223Z,13.42
2017-08-13T03:46:02.447Z,13.36
2017-08-13T03:47:11.969Z,13.44
2017-08-13T03:48:21.795Z,13.42
2017-08-13T03:49:30.997Z,13.42
2017-08-13T03:50:40.205Z,13.39
2017-08-13T03:51:49.740Z,13.46
2017-08-13T03:52:59.261Z,13.49
2017-08-13T03:54:09.318Z,13.42
2017-08-13T03:55:18.530Z,13.45
2017-08-13T03:56:27.420Z,13.48
2017-08-13T03:57:36.299Z,13.41
2017-08-13T03:58:45.506Z,13.44
2017-08-13T03:59:54.866Z,13.44
2017-08-13T04:01:04.397Z,13.48
2017-08-13T04:02:13.601Z,13.55
2017-08-13T04:03:22.818Z,13.54
2017-08-13T04:04:31.703Z,13.52
2017-08-13T04:05:41.342Z,13.62
2017-08-13T04:06:50.865Z,13.44
2017-08-13T04:08:00.081Z,13.44
2017-08-13T04:09:08.962Z,13.38
2017-08-13T04:10:18.170Z,13.51
2017-08-13T04:11:27.198Z,13.51
2017-08-13T04:12:36.725Z,13.55
2017-08-13T04:13:45.926Z,13.51
2017-08-13T04:14:55.135Z,13.48
2017-08-13T04:16:04.348Z,13.46
2017-08-13T04:17:14.022Z,13.55
2017-08-13T04:18:23.550Z,13.49
2017-08-13T04:19:32.753Z,13.51
2017-08-13T04:20:41.632Z,13.45
2017-08-13T04:21:50.520Z,13.57
2017-08-13T04:23:00.104Z,13.48
2017-08-13T04:24:09.631Z,13.59
2017-08-13T04:25:19.160Z,13.44
2017-08-13T04:26:28.364Z,13.59
2017-08-13T04:27:37.572Z,13.59
2017-08-13T04:28:46.561Z,13.48
2017-08-13T04:29:55.449Z,13.42
2017-08-13T04:31:04.981Z,13.48
2017-08-13T04:32:14.510Z,13.41
2017-08-13T04:33:23.390Z,13.49
2017-08-13T04:34:33.543Z,13.51
2017-08-13T04:35:43.078Z,13.54
2017-08-13T04:36:51.957Z,13.51
2017-08-13T04:38:02.137Z,13.6
2017-08-13T04:39:11.021Z,13.49
2017-08-13T04:40:20.222Z,13.49
2017-08-13T04:41:30.073Z,13.48
2017-08-13T04:42:39.276Z,13.51
2017-08-13T04:43:48.484Z,13.39
2017-08-13T04:44:58.016Z,13.49
2017-08-13T04:46:07.328Z,13.49
2017-08-13T04:47:16.856Z,13.51
2017-08-13T04:48:26.060Z,13.46
2017-08-13T04:49:35.259Z,13.51
2017-08-13T04:50:44.788Z,13.54
2017-08-13T04:51:53.789Z,13.52
2017-08-13T04:53:03.314Z,13.51
2017-08-13T04:54:12.534Z,13.6
2017-08-13T04:55:22.085Z,13.59
2017-08-13T04:56:30.970Z,13.66
2017-08-13T04:57:41.119Z,13.62
2017-08-13T04:58:50.329Z,13.66
2017-08-13T04:59:59.214Z,13.67
2017-08-13T05:01:08.417Z,13.63
2017-08-13T05:02:17.298Z,13.67
2017-08-13T05:03:26.233Z,13.64
2017-08-13T05:04:35.112Z,13.71
2017-08-13T05:05:44.317Z,13.73
2017-08-13T05:06:53.204Z,13.71
2017-08-13T05:08:02.740Z,13.66
2017-08-13T05:09:12.741Z,13.78
2017-08-13T05:10:21.953Z,13.77
2017-08-13T05:11:31.157Z,13.75
2017-08-13T05:12:40.385Z,13.75
2017-08-13T05:13:49.596Z,13.81
2017-08-13T05:14:58.813Z,13.75
2017-08-13T05:16:07.694Z,13.75
2017-08-13T05:17:16.915Z,13.79
2017-08-13T05:18:25.797Z,13.92
2017-08-13T05:19:35.001Z,13.85
2017-08-13T05:20:44.262Z,13.99
2017-08-13T05:21:53.148Z,13.99
2017-08-13T05:23:02.681Z,14.04
2017-08-13T05:24:12.211Z,13.97
2017-08-13T05:25:21.422Z,13.99
2017-08-13T05:26:30.781Z,13.99
2017-08-13T05:27:39.989Z,13.99
2017-08-13T05:28:49.525Z,13.96
2017-08-13T05:29:58.408Z,14
2017-08-13T05:31:07.619Z,13.99
2017-08-13T05:32:17.820Z,13.97
2017-08-13T05:33:27.350Z,14.07
2017-08-13T05:34:36.879Z,13.99
2017-08-13T05:35:46.087Z,14.06
2017-08-13T05:36:55.950Z,14.15
2017-08-13T05:38:05.914Z,14.12
2017-08-13T05:39:15.120Z,14.12
2017-08-13T05:40:24.657Z,14.15
2017-08-13T05:41:33.875Z,14.18
2017-08-13T05:42:43.414Z,14.15
2017-08-13T05:43:52.776Z,14.25
2017-08-13T05:45:01.656Z,14.29
2017-08-13T05:46:11.834Z,14.35
2017-08-13T05:47:21.040Z,14.32
2017-08-13T05:48:29.927Z,14.28
2017-08-13T05:49:39.284Z,14.29
2017-08-13T05:50:48.498Z,14.33
2017-08-13T05:51:57.704Z,14.28
2017-08-13T05:53:07.232Z,14.5
2017-08-13T05:54:16.452Z,14.37
2017-08-13T05:55:25.810Z,14.42
2017-08-13T05:56:35.022Z,14.5
2017-08-13T05:57:44.235Z,14.52
2017-08-13T05:58:53.773Z,14.47
2017-08-13T06:00:03.298Z,14.46
2017-08-13T06:01:12.830Z,14.4
2017-08-13T06:02:22.364Z,14.42
2017-08-13T06:03:31.255Z,14.47
2017-08-13T06:04:40.460Z,14.5
2017-08-13T06:05:49.670Z,14.57
2017-08-13T06:06:58.551Z,14.54
2017-08-13T06:08:07.752Z,14.55
2017-08-13T06:09:16.966Z,14.52
2017-08-13T06:10:26.171Z,14.55
2017-08-13T06:11:35.705Z,14.58
2017-08-13T06:12:45.230Z,14.61
2017-08-13T06:13:54.782Z,14.5
2017-08-13T06:15:04.135Z,14.6
2017-08-13T06:16:13.744Z,14.54
2017-08-13T06:17:23.277Z,14.6
2017-08-13T06:18:33.013Z,14.57
2017-08-13T06:19:42.218Z,14.68
2017-08-13T06:20:52.090Z,14.64
2017-08-13T06:22:01.311Z,14.75
2017-08-13T06:23:10.201Z,14.75
2017-08-13T06:24:19.469Z,14.73
2017-08-13T06:25:28.996Z,14.62
2017-08-13T06:26:38.537Z,14.61
2017-08-13T06:27:47.417Z,14.65
2017-08-13T06:28:56.949Z,14.64
2017-08-13T06:30:06.410Z,14.72
2017-08-13T06:31:15.939Z,14.65
2017-08-13T06:32:26.121Z,14.78
2017-08-13T06:33:35.332Z,14.73
2017-08-13T06:34:44.220Z,14.7
2017-08-13T06:35:53.532Z,14.73
2017-08-13T06:37:02.781Z,14.8
2017-08-13T06:38:12.310Z,14.78
2017-08-13T06:39:22.165Z,14.86
2017-08-13T06:40:31.697Z,14.89
2017-08-13T06:41:41.717Z,14.89
2017-08-13T06:42:50.595Z,14.91
2017-08-13T06:43:59.808Z,14.98
2017-08-13T06:45:09.379Z,14.98
2017-08-13T06:46:18.916Z,14.99
2017-08-13T06:47:28.098Z,15.06
2017-08-13T06:48:37.302Z,15.11
2017-08-13T06:49:46.842Z,15.17
2017-08-13T06:50:56.052Z,15.13
2017-08-13T06:52:05.267Z,15.28
2017-08-13T06:53:14.488Z,15.21
2017-08-13T06:54:23.707Z,15.17
2017-08-13T06:55:32.590Z,15.25
2017-08-13T06:56:42.440Z,15.21
2017-08-13T06:57:51.330Z,15.19
2017-08-13T06:59:00.592Z,15.28
2017-08-13T07:00:09.804Z,15.25
2017-08-13T07:01:19.007Z,15.29
2017-08-13T07:02:28.861Z,15.25
2017-08-13T07:03:38.073Z,15.25
2017-08-13T07:04:47.011Z,15.28
2017-08-13T07:05:56.224Z,15.27
2017-08-13T07:07:05.753Z,15.2
2017-08-13T07:08:14.958Z,15.28
2017-08-13T07:09:24.492Z,15.31
2017-08-13T07:10:34.216Z,15.28
2017-08-13T07:11:43.484Z,15.31
2017-08-13T07:12:54.224Z,15.27
2017-08-13T07:14:04.089Z,15.39
2017-08-13T07:15:13.014Z,15.44
2017-08-13T07:16:22.762Z,15.57
2017-08-13T07:17:31.976Z,15.56
2017-08-13T07:18:41.505Z,15.51
2017-08-13T07:19:51.103Z,15.51
2017-08-13T07:21:00.737Z,15.62
2017-08-13T07:22:10.663Z,15.62
2017-08-13T07:23:19.948Z,15.64
2017-08-13T07:24:29.219Z,15.78
2017-08-13T07:25:39.074Z,15.72
2017-08-13T07:26:48.613Z,15.67
2017-08-13T07:27:57.822Z,15.68
2017-08-13T07:29:07.049Z,15.75
2017-08-13T07:30:16.256Z,15.9
2017-08-13T07:31:25.470Z,15.94
2017-08-13T07:32:35.001Z,15.96
2017-08-13T07:33:44.641Z,15.96
2017-08-13T07:34:53.531Z,16
2017-08-13T07:36:02.415Z,16
2017-08-13T07:37:11.945Z,15.89
2017-08-13T07:38:20.836Z,15.92
2017-08-13T07:39:30.677Z,15.97
2017-08-13T07:40:41.238Z,15.93
2017-08-13T07:41:50.909Z,16.01
2017-08-13T07:43:01.216Z,15.96
2017-08-13T07:44:10.552Z,16.02
2017-08-13T07:45:19.908Z,16
2017-08-13T07:46:29.116Z,15.96
2017-08-13T07:47:38.006Z,15.96
2017-08-13T07:48:47.542Z,16
2017-08-13T07:49:57.075Z,16.01
2017-08-13T07:51:07.010Z,15.96
2017-08-13T07:52:15.893Z,16
2017-08-13T07:53:25.439Z,16
2017-08-13T07:54:34.974Z,15.9
2017-08-13T07:55:44.182Z,16
2017-08-13T07:56:53.222Z,15.93
2017-08-13T07:58:02.118Z,15.97
2017-08-13T07:59:11.973Z,15.94
2017-08-13T08:00:21.829Z,16.01
2017-08-13T08:01:31.052Z,15.94
2017-08-13T08:02:40.588Z,15.93
2017-08-13T08:03:49.471Z,15.94
2017-08-13T08:04:58.356Z,15.92
2017-08-13T08:06:07.566Z,15.93
2017-08-13T08:07:17.423Z,15.92
2017-08-13T08:08:26.979Z,15.92
2017-08-13T08:09:36.534Z,15.93
2017-08-13T08:10:46.386Z,15.92
2017-08-13T08:11:55.918Z,15.82
2017-08-13T08:13:05.601Z,15.89
2017-08-13T08:14:14.806Z,15.9
2017-08-13T08:15:24.022Z,15.82
2017-08-13T08:16:33.230Z,15.83
2017-08-13T08:17:42.436Z,15.87
2017-08-13T08:18:51.322Z,15.89
2017-08-13T08:20:01.187Z,15.89
2017-08-13T08:21:10.724Z,15.87
2017-08-13T08:22:20.259Z,15.86
2017-08-13T08:23:30.111Z,15.96
2017-08-13T08:24:39.317Z,15.92
2017-08-13T08:25:48.526Z,16.01
2017-08-13T08:26:58.051Z,16.01
2017-08-13T08:28:07.258Z,16.01
2017-08-13T08:29:16.145Z,16.04
2017-08-13T08:30:26.017Z,16.08
2017-08-13T08:31:34.901Z,16.23
2017-08-13T08:32:44.109Z,16.25
2017-08-13T08:33:53.958Z,16.3
2017-08-13T08:35:02.851Z,16.35
2017-08-13T08:36:12.478Z,16.45
2017-08-13T08:37:22.060Z,16.43
2017-08-13T08:38:31.373Z,16.49
2017-08-13T08:39:40.991Z,16.46
2017-08-13T08:40:49.933Z,16.61
2017-08-13T08:41:59.251Z,16.66
2017-08-13T08:43:08.513Z,16.66
2017-08-13T08:44:18.096Z,16.67
2017-08-13T08:45:27.563Z,16.76
2017-08-13T08:46:37.707Z,16.68
2017-08-13T08:47:46.594Z,16.82
2017-08-13T08:48:56.121Z,16.82
2017-08-13T08:50:05.658Z,16.83
2017-08-13T08:51:14.590Z,16.89
2017-08-13T08:52:23.795Z,16.91
2017-08-13T08:53:32.686Z,16.88
2017-08-13T08:54:41.897Z,16.89
2017-08-13T08:55:51.756Z,16.94
2017-08-13T08:57:00.938Z,17.01
2017-08-13T08:58:09.825Z,17.08
2017-08-13T08:59:19.041Z,17.07
2017-08-13T09:00:28.577Z,17.11
2017-08-13T09:01:37.788Z,17.07
2017-08-13T09:02:47.318Z,17.18
2017-08-13T09:03:56.851Z,17.18
2017-08-13T09:05:06.060Z,17.19
2017-08-13T09:06:15.277Z,17.26
2017-08-13T09:07:24.493Z,17.26
2017-08-13T09:08:34.175Z,17.33
2017-08-13T09:09:44.031Z,17.36
2017-08-13T09:10:52.914Z,17.36
2017-08-13T09:12:02.122Z,17.33
2017-08-13T09:13:11.342Z,17.37
2017-08-13T09:14:20.389Z,17.37
2017-08-13T09:15:29.596Z,17.25
2017-08-13T09:16:38.484Z,17.26
2017-08-13T09:17:47.701Z,17.28
2017-08-13T09:18:56.936Z,17.14
2017-08-13T09:20:06.794Z,17.21
2017-08-13T09:21:16.012Z,17.03
2017-08-13T09:22:25.546Z,17.01
2017-08-13T09:23:34.780Z,16.89
2017-08-13T09:24:43.988Z,16.83
2017-08-13T09:25:53.346Z,16.86
2017-08-13T09:27:02.561Z,16.86
2017-08-13T09:28:12.102Z,16.82
2017-08-13T09:29:21.007Z,16.75
2017-08-13T09:30:30.543Z,16.76
2017-08-13T09:31:39.629Z,16.75
2017-08-13T09:32:48.837Z,16.78
2017-08-13T09:33:57.719Z,16.71
2017-08-13T09:35:06.931Z,16.71
2017-08-13T09:36:16.141Z,16.79
2017-08-13T09:37:25.927Z,16.75
2017-08-13T09:38:35.140Z,16.66
2017-08-13T09:39:44.675Z,16.64
2017-08-13T09:40:54.212Z,16.6
2017-08-13T09:42:03.423Z,16.64
2017-08-13T09:43:12.305Z,16.67
2017-08-13T09:44:21.514Z,16.67
2017-08-13T09:45:30.722Z,16.57
2017-08-13T09:46:39.616Z,16.57
2017-08-13T09:47:48.505Z,16.66
2017-08-13T09:48:57.863Z,16.49
2017-08-13T09:50:07.075Z,16.56
2017-08-13T09:51:16.610Z,16.64
2017-08-13T09:52:25.494Z,16.66
2017-08-13T09:53:35.033Z,16.53
2017-08-13T09:54:44.345Z,16.57
2017-08-13T09:55:53.556Z,16.68
2017-08-13T09:57:03.091Z,16.67
2017-08-13T09:58:12.633Z,16.67
2017-08-13T09:59:22.485Z,16.7
2017-08-13T10:00:32.395Z,16.58
2017-08-13T10:01:41.619Z,16.45
2017-08-13T10:02:51.161Z,16.49
2017-08-13T10:04:00.059Z,16.46
2017-08-13T10:05:08.947Z,16.39
2017-08-13T10:06:18.264Z,16.39
2017-08-13T10:07:27.149Z,16.45
2017-08-13T10:08:36.037Z,16.5
2017-08-13T10:09:45.248Z,16.56
2017-08-13T10:10:54.463Z,16.46
2017-08-13T10:12:04.059Z,16.45
2017-08-13T10:13:12.971Z,16.5
2017-08-13T10:14:22.512Z,16.46
2017-08-13T10:15:32.058Z,16.45
2017-08-13T10:16:41.920Z,16.49
2017-08-13T10:17:51.184Z,16.41
2017-08-13T10:19:01.049Z,16.38
2017-08-13T10:20:10.256Z,16.38
2017-08-13T10:21:20.550Z,16.39
2017-08-13T10:22:30.731Z,16.34
2017-08-13T10:23:40.415Z,16.31
2017-08-13T10:24:49.959Z,16.34
2017-08-13T10:25:59.574Z,16.24
2017-08-13T10:27:08.781Z,16.27
2017-08-13T10:28:18.636Z,16.23
2017-08-13T10:29:27.998Z,16.33
2017-08-13T10:30:37.849Z,16.24
2017-08-13T10:31:47.056Z,16.27
2017-08-13T10:32:56.264Z,16.3
2017-08-13T10:34:05.794Z,16.31
2017-08-13T10:35:15.648Z,16.34
2017-08-13T10:36:24.861Z,16.27
2017-08-13T10:37:33.745Z,16.27
2017-08-13T10:38:43.280Z,16.33
2017-08-13T10:39:52.484Z,16.27
2017-08-13T10:41:02.302Z,16.3
2017-08-13T10:42:11.842Z,16.41
2017-08-13T10:43:22.042Z,16.39
2017-08-13T10:44:31.447Z,16.41
2017-08-13T10:45:40.438Z,16.48
2017-08-13T10:46:49.716Z,16.42
2017-08-13T10:47:58.923Z,16.41
2017-08-13T10:49:08.805Z,16.41
2017-08-13T10:50:18.042Z,16.45
2017-08-13T10:51:27.623Z,16.38
2017-08-13T10:52:37.184Z,16.46
2017-08-13T10:53:46.719Z,16.39
2017-08-13T10:54:55.958Z,16.48
2017-08-13T10:56:05.176Z,16.39
2017-08-13T10:57:14.062Z,16.49
2017-08-13T10:58:23.640Z,16.45
2017-08-13T10:59:33.338Z,16.46
2017-08-13T11:00:42.870Z,16.43
2017-08-13T11:01:52.167Z,16.52
2017-08-13T11:03:01.743Z,16.46
2017-08-13T11:04:11.063Z,16.46
2017-08-13T11:05:20.659Z,16.42
2017-08-13T11:06:30.554Z,16.5
2017-08-13T11:07:39.761Z,16.56
2017-08-13T11:08:48.651Z,16.58
2017-08-13T11:09:57.870Z,16.58
2017-08-13T11:11:07.408Z,16.67
2017-08-13T11:12:16.649Z,16.61
2017-08-13T11:13:25.538Z,16.67
2017-08-13T11:14:35.404Z,16.73
2017-08-13T11:15:44.618Z,16.68
2017-08-13T11:16:53.824Z,16.67
2017-08-13T11:18:02.704Z,16.64
2017-08-13T11:19:12.891Z,16.57
2017-08-13T11:20:22.104Z,16.53
2017-08-13T11:21:31.045Z,16.57
2017-08-13T11:22:40.578Z,16.6
2017-08-13T11:23:50.109Z,16.58
2017-08-13T11:24:58.991Z,16.68
2017-08-13T11:26:08.520Z,16.68
2017-08-13T11:27:18.053Z,16.75
2017-08-13T11:28:27.259Z,16.75
2017-08-13T11:29:36.468Z,16.83
2017-08-13T11:30:45.681Z,16.78
2017-08-13T11:31:54.570Z,16.81
2017-08-13T11:33:04.100Z,16.76
2017-08-13T11:34:12.994Z,16.78
2017-08-13T11:35:22.538Z,16.68
2017-08-13T11:36:32.079Z,16.71
2017-08-13T11:37:41.291Z,16.81
2017-08-13T11:38:50.549Z,16.91
2017-08-13T11:40:00.082Z,16.88
2017-08-13T11:41:09.937Z,16.93
2017-08-13T11:42:18.824Z,16.96
2017-08-13T11:43:28.683Z,16.94
2017-08-13T11:44:37.903Z,16.94
2017-08-13T11:45:47.763Z,16.94
2017-08-13T11:46:57.619Z,16.94
2017-08-13T11:48:07.156Z,16.88
2017-08-13T11:49:16.688Z,16.96
2017-08-13T11:50:25.894Z,16.93
2017-08-13T11:51:35.424Z,16.93
2017-08-13T11:52:44.634Z,16.94
2017-08-13T11:53:54.162Z,16.94
2017-08-13T11:55:03.041Z,16.88
2017-08-13T11:56:12.025Z,17
2017-08-13T11:57:21.242Z,16.97
2017-08-13T11:58:30.784Z,17.04
2017-08-13T11:59:39.989Z,17.08
2017-08-13T12:00:48.878Z,17.14
2017-08-13T12:01:58.091Z,17.12
2017-08-13T12:03:07.636Z,17.07
2017-08-13T12:04:16.522Z,17.19
2017-08-13T12:05:26.063Z,17.19
2017-08-13T12:06:35.596Z,17.19
2017-08-13T12:07:44.804Z,17.28
2017-08-13T12:08:54.012Z,17.33
2017-08-13T12:10:03.220Z,17.36
2017-08-13T12:11:12.754Z,17.36
2017-08-13T12:12:21.964Z,17.38
2017-08-13T12:13:30.849Z,17.41
2017-08-13T12:14:40.057Z,17.51
2017-08-13T12:15:49.589Z,17.46
2017-08-13T12:16:58.802Z,17.48
2017-08-13T12:18:08.334Z,17.51
2017-08-13T12:19:17.220Z,17.62
2017-08-13T12:20:26.427Z,17.59
2017-08-13T12:21:35.312Z,17.66
2017-08-13T12:22:44.206Z,17.66
2017-08-13T12:23:53.094Z,17.64
2017-08-13T12:25:01.978Z,17.52
2017-08-13T12:26:11.527Z,17.72
2017-08-13T12:27:21.064Z,17.64
2017-08-13T12:28:29.949Z,17.75
2017-08-13T12:29:38.835Z,17.78
2017-08-13T12:30:47.770Z,17.79
2017-08-13T12:31:57.312Z,17.93
2017-08-13T12:33:06.523Z,17.95
2017-08-13T12:34:16.062Z,17.96
2017-08-13T12:35:24.951Z,17.92
2017-08-13T12:36:34.485Z,17.95
2017-08-13T12:37:43.377Z,18.03
2017-08-13T12:38:52.915Z,18
2017-08-13T12:40:02.121Z,18
2017-08-13T12:41:11.975Z,18
2017-08-13T12:42:21.519Z,18.17
2017-08-13T12:43:31.049Z,18.1
2017-08-13T12:44:40.260Z,18.17
2017-08-13T12:45:49.804Z,18.25
2017-08-13T12:46:58.733Z,18.14
2017-08-13T12:48:07.833Z,18.15
2017-08-13T12:49:16.733Z,18.23
2017-08-13T12:50:25.958Z,18.26
2017-08-13T12:51:35.186Z,18.3
2017-08-13T12:52:44.096Z,18.33
2017-08-13T12:53:53.691Z,18.45
2017-08-13T12:55:02.603Z,18.52
2017-08-13T12:56:11.823Z,18.55
2017-08-13T12:57:20.721Z,18.58
2017-08-13T12:58:29.947Z,18.7
2017-08-13T12:59:39.002Z,18.65
2017-08-13T13:00:48.581Z,18.78
2017-08-13T13:01:57.825Z,18.81
2017-08-13T13:03:07.051Z,18.95
2017-08-13T13:04:16.606Z,19.1
2017-08-13T13:05:25.680Z,19.29
2017-08-13T13:06:34.615Z,19.33
2017-08-13T13:07:43.840Z,19.44
2017-08-13T13:08:53.415Z,19.48
2017-08-13T13:10:02.315Z,19.62
2017-08-13T13:11:11.543Z,19.62
2017-08-13T13:12:21.094Z,19.69
2017-08-13T13:13:30.314Z,19.74
2017-08-13T13:14:39.537Z,19.86
2017-08-13T13:15:48.446Z,19.83
2017-08-13T13:16:57.348Z,19.73
2017-08-13T13:18:06.572Z,19.8
2017-08-13T13:19:15.472Z,19.99
2017-08-13T13:20:24.378Z,20.08
2017-08-13T13:21:33.954Z,20.33
2017-08-13T13:22:43.339Z,20.31
2017-08-13T13:23:52.569Z,20.32
2017-08-13T13:25:02.117Z,20.33
2017-08-13T13:26:11.348Z,20.5
2017-08-13T13:27:20.268Z,20.52
2017-08-13T13:28:29.643Z,20.57
2017-08-13T13:29:38.546Z,20.7
2017-08-13T13:30:47.455Z,20.82
2017-08-13T13:31:56.358Z,20.72
2017-08-13T13:33:05.919Z,20.89
2017-08-13T13:34:15.319Z,20.95
2017-08-13T13:35:24.876Z,20.73
2017-08-13T13:36:33.849Z,20.91
2017-08-13T13:37:43.081Z,21.01
2017-08-13T13:38:52.639Z,21.16
2017-08-13T13:40:02.817Z,21.19
2017-08-13T13:41:12.049Z,21.28
2017-08-13T13:42:21.602Z,21.19
2017-08-13T13:43:31.158Z,21.35
2017-08-13T13:44:40.057Z,21.53
2017-08-13T13:45:49.106Z,21.65
2017-08-13T13:46:58.001Z,21.64
2017-08-13T13:48:06.896Z,21.77
2017-08-13T13:49:16.119Z,21.92
2017-08-13T13:50:25.672Z,21.82
2017-08-13T13:51:35.152Z,21.88
2017-08-13T13:52:44.374Z,21.98
2017-08-13T13:53:53.592Z,22.03
2017-08-13T13:55:02.495Z,22.12
2017-08-13T13:56:12.037Z,22.18
2017-08-13T13:57:21.140Z,22.39
2017-08-13T13:58:30.045Z,22.49
2017-08-13T13:59:39.286Z,22.3
2017-08-13T14:00:48.190Z,22.4
2017-08-13T14:01:57.735Z,22.58
2017-08-13T14:03:07.807Z,22.72
2017-08-13T14:04:17.356Z,22.82
2017-08-13T14:05:26.586Z,22.82
2017-08-13T14:06:35.490Z,23.13
2017-08-13T14:07:44.716Z,23.33
2017-08-13T14:08:54.087Z,23.58
2017-08-13T14:10:03.632Z,23.04
2017-08-13T14:11:12.535Z,23.17
2017-08-13T14:12:21.446Z,23.39
2017-08-13T14:13:30.669Z,23.51
2017-08-13T14:14:39.994Z,23.55
2017-08-13T14:15:49.226Z,23.36
2017-08-13T14:16:58.133Z,23.32
2017-08-13T14:18:07.689Z,23.36
2017-08-13T14:19:16.592Z,23.51
2017-08-13T14:20:25.689Z,23.76
2017-08-13T14:21:34.588Z,23.85
2017-08-13T14:22:43.816Z,23.98
2017-08-13T14:23:53.042Z,24.18
2017-08-13T14:25:02.595Z,24.39
2017-08-13T14:26:12.346Z,24.58
2017-08-13T14:27:21.904Z,24.53
2017-08-13T14:28:31.141Z,24.53
2017-08-13T14:29:40.044Z,24.53
2017-08-13T14:30:49.598Z,24.73
2017-08-13T14:31:58.874Z,24.62
2017-08-13T14:33:08.426Z,24.69
2017-08-13T14:34:17.653Z,24.73
2017-08-13T14:35:26.889Z,24.65
2017-08-13T14:36:36.114Z,24.5
2017-08-13T14:37:45.488Z,24.43
2017-08-13T14:38:54.712Z,24.08
2017-08-13T14:40:03.938Z,23.98
2017-08-13T14:41:13.160Z,24.27
2017-08-13T14:42:23.044Z,24.42
2017-08-13T14:43:32.442Z,24.47
2017-08-13T14:44:41.342Z,24.42
2017-08-13T14:45:50.238Z,24.21
2017-08-13T14:46:59.464Z,24.2
2017-08-13T14:48:08.687Z,24.16
2017-08-13T14:49:18.713Z,24.25
2017-08-13T14:50:27.618Z,24
2017-08-13T14:51:36.515Z,23.9
2017-08-13T14:52:46.380Z,23.76
2017-08-13T14:53:55.923Z,23.58
2017-08-13T14:55:05.459Z,23.39
2017-08-13T14:56:15.033Z,23.23